createdAt,value
2022-08-03T00:01:49.699Z,72.38
2022-08-03T00:04:16.493Z,72.07
2022-08-03T00:06:43.327Z,72.28
2022-08-03T00:09:11.239Z,72.31
2022-08-03T00:11:38.233Z,72.32
2022-08-03T00:14:06.673Z,72.78
2022-08-03T00:16:33.520Z,72.57
2022-08-03T00:19:01.122Z,72.47
2022-08-03T00:21:28.838Z,73.10
2022-08-03T00:23:55.564Z,73.27
2022-08-03T00:26:22.428Z,73.17
2022-08-03T00:28:50.028Z,73.36
2022-08-03T00:31:16.840Z,73.67
2022-08-03T00:33:59.584Z,73.81
2022-08-03T00:36:30.116Z,73.84
2022-08-03T00:38:56.950Z,74.11
2022-08-03T00:41:23.650Z,74.35
2022-08-03T00:43:50.633Z,74.83
2022-08-03T00:46:21.382Z,74.39
2022-08-03T00:48:52.454Z,74.40
2022-08-03T00:51:21.665Z,74.39
2022-08-03T00:53:49.513Z,74.31
2022-08-03T00:56:17.541Z,74.56
2022-08-03T00:58:45.540Z,74.27
2022-08-03T01:01:12.973Z,73.97
2022-08-03T01:03:40.906Z,74.20
2022-08-03T01:06:13.479Z,74.15
2022-08-03T01:09:02.753Z,74.13
2022-08-03T01:11:59.725Z,74.77
2022-08-03T01:14:38.390Z,74.79
2022-08-03T01:17:19.667Z,75.10
2022-08-03T01:19:56.489Z,74.85
2022-08-03T01:22:37.959Z,74.82
2022-08-03T01:25:13.825Z,75.15
2022-08-03T01:27:58.590Z,75.30
2022-08-03T01:30:31.705Z,75.24
2022-08-03T01:33:11.606Z,75.10
2022-08-03T01:36:03.558Z,75.28
2022-08-03T01:38:34.469Z,75.02
2022-08-03T01:41:07.244Z,75.04
2022-08-03T01:44:27.853Z,74.93
2022-08-03T01:46:25.309Z,74.70
2022-08-03T01:48:53.948Z,75.14
2022-08-03T01:51:22.550Z,74.65
2022-08-03T01:53:52.266Z,74.89
2022-08-03T01:56:22.492Z,75.05
2022-08-03T01:58:51.669Z,75.26
2022-08-03T02:01:20.821Z,75.45
2022-08-03T02:03:56.685Z,75.47
2022-08-03T02:07:01.813Z,75.84
2022-08-03T02:09:21.166Z,75.93
2022-08-03T02:11:49.387Z,76.03
2022-08-03T02:14:17.284Z,75.99
2022-08-03T02:16:46.105Z,76.02
2022-08-03T02:19:14.631Z,76.16
2022-08-03T02:21:55.701Z,76.12
2022-08-03T02:24:22.954Z,76.13
2022-08-03T02:26:51.519Z,76.37
2022-08-03T02:29:40.168Z,76.38
2022-08-03T02:32:11.760Z,76.30
2022-08-03T02:34:42.421Z,76.51
2022-08-03T02:37:10.904Z,76.15
2022-08-03T02:39:39.293Z,75.85
2022-08-03T02:42:08.740Z,75.87
2022-08-03T02:44:36.956Z,76.09
2022-08-03T02:47:11.333Z,76.32
2022-08-03T02:49:49.759Z,76.28
2022-08-03T02:52:19.549Z,76.19
2022-08-03T02:54:48.878Z,76.16
2022-08-03T02:57:16.636Z,76.38
2022-08-03T02:59:45.134Z,76.45
2022-08-03T03:02:13.406Z,76.25
2022-08-03T03:04:58.094Z,76.17
2022-08-03T03:07:28.807Z,76.37
2022-08-03T03:09:58.764Z,76.29
2022-08-03T03:12:27.898Z,76.65
2022-08-03T03:14:54.642Z,76.87
2022-08-03T03:17:22.583Z,76.53
2022-08-03T03:19:51.315Z,76.62
2022-08-03T03:22:18.824Z,76.56
2022-08-03T03:24:47.366Z,76.46
2022-08-03T03:27:17.321Z,76.43
2022-08-03T03:29:44.469Z,76.95
2022-08-03T03:32:11.331Z,76.51
2022-08-03T03:34:38.257Z,76.44
2022-08-03T03:37:05.755Z,76.25
2022-08-03T03:39:32.690Z,76.27
2022-08-03T03:42:01.898Z,76.24
2022-08-03T03:44:30.325Z,76.20
2022-08-03T03:47:00.189Z,76.30
2022-08-03T03:49:27.357Z,76.60
2022-08-03T03:51:55.611Z,76.42
2022-08-03T03:54:22.423Z,76.48
2022-08-03T03:56:56.361Z,76.85
2022-08-03T03:59:23.081Z,76.93
2022-08-03T04:01:58.498Z,76.83
2022-08-03T04:04:44.431Z,76.88
2022-08-03T04:07:30.016Z,77.14
2022-08-03T04:10:16.778Z,77.04
2022-08-03T04:12:49.979Z,77.03
2022-08-03T04:15:22.713Z,77.32
2022-08-03T04:17:50.939Z,77.56
2022-08-03T04:20:21.347Z,77.54
2022-08-03T04:22:51.403Z,77.72
2022-08-03T04:25:21.051Z,77.27
2022-08-03T04:28:29.399Z,77.25
2022-08-03T04:30:38.970Z,77.34
2022-08-03T04:33:07.198Z,77.28
2022-08-03T04:36:02.184Z,76.81
2022-08-03T04:38:25.754Z,76.65
2022-08-03T04:40:53.172Z,76.36
2022-08-03T04:43:22.673Z,76.28
2022-08-03T04:45:51.365Z,76.09
2022-08-03T04:48:20.106Z,76.11
2022-08-03T04:50:47.977Z,76.02
2022-08-03T04:53:14.790Z,76.37
2022-08-03T04:55:41.524Z,76.04
2022-08-03T04:58:08.237Z,75.85
2022-08-03T05:00:35.167Z,75.57
2022-08-03T05:03:01.908Z,75.46
2022-08-03T05:05:34.636Z,75.31
2022-08-03T05:08:15.261Z,75.54
2022-08-03T05:10:42.033Z,75.64
2022-08-03T05:13:12.136Z,75.60
2022-08-03T05:15:42.983Z,75.71
2022-08-03T05:18:13.926Z,75.32
2022-08-03T05:20:41.266Z,75.24
2022-08-03T05:23:07.989Z,75.13
2022-08-03T05:25:34.868Z,74.43
2022-08-03T05:28:01.793Z,74.67
2022-08-03T05:30:33.610Z,74.25
2022-08-03T05:33:02.543Z,74.27
2022-08-03T05:35:57.546Z,74.22
2022-08-03T05:38:24.054Z,74.01
2022-08-03T05:41:21.489Z,73.89
2022-08-03T05:43:45.221Z,73.48
2022-08-03T05:46:13.204Z,73.48
2022-08-03T05:48:40.412Z,73.37
2022-08-03T05:51:11.865Z,72.73
2022-08-03T05:53:43.181Z,72.46
2022-08-03T05:56:14.104Z,72.62
2022-08-03T05:58:42.735Z,72.24
2022-08-03T06:01:09.663Z,71.96
2022-08-03T06:03:36.214Z,71.67
2022-08-03T06:06:02.978Z,71.53
2022-08-03T06:08:29.961Z,71.02
2022-08-03T06:10:56.676Z,70.82
2022-08-03T06:13:23.394Z,70.04
2022-08-03T06:15:50.155Z,69.24
2022-08-03T06:18:16.942Z,68.86
2022-08-03T06:20:43.660Z,69.22
2022-08-03T06:23:16.226Z,68.84
2022-08-03T06:25:44.864Z,68.87
2022-08-03T06:28:29.027Z,68.33
2022-08-03T06:31:01.134Z,67.96
2022-08-03T06:34:30.401Z,67.88
2022-08-03T06:36:15.413Z,67.46
2022-08-03T06:38:42.240Z,67.45
2022-08-03T06:41:08.964Z,67.00
2022-08-03T06:44:03.333Z,66.23
2022-08-03T06:46:25.900Z,66.26
2022-08-03T06:48:53.302Z,65.61
2022-08-03T06:51:20.081Z,65.98
2022-08-03T06:53:47.070Z,65.54
2022-08-03T06:56:13.772Z,65.59
2022-08-03T06:58:40.762Z,65.28
2022-08-03T07:01:07.581Z,64.79
2022-08-03T07:03:34.348Z,64.87
2022-08-03T07:06:02.317Z,64.07
2022-08-03T07:08:33.808Z,63.91
2022-08-03T07:11:01.462Z,63.38
2022-08-03T07:13:28.322Z,63.39
2022-08-03T07:15:56.368Z,63.23
2022-08-03T07:18:29.371Z,63.14
2022-08-03T07:20:58.295Z,62.58
2022-08-03T07:23:25.732Z,62.58
2022-08-03T07:25:52.712Z,62.14
2022-08-03T07:28:20.297Z,61.70
2022-08-03T07:30:47.470Z,61.29
2022-08-03T07:33:15.518Z,60.46
2022-08-03T07:35:42.547Z,60.23
2022-08-03T07:38:09.230Z,59.76
2022-08-03T07:40:36.049Z,59.26
2022-08-03T07:43:03.856Z,58.81
2022-08-03T07:45:34.203Z,58.16
2022-08-03T07:48:01.273Z,58.20
2022-08-03T07:50:28.232Z,57.65
2022-08-03T07:52:56.198Z,57.36
2022-08-03T07:55:24.523Z,56.52
2022-08-03T07:58:01.395Z,55.27
2022-08-03T08:00:28.732Z,50.12
2022-08-03T08:02:55.401Z,49.79
2022-08-03T08:05:22.050Z,51.31
2022-08-03T08:07:50.723Z,52.14
2022-08-03T08:10:19.126Z,52.45
2022-08-03T08:12:46.379Z,52.60
2022-08-03T08:15:13.238Z,52.17
2022-08-03T08:17:46.974Z,51.74
2022-08-03T08:20:16.440Z,52.10
2022-08-03T08:22:56.037Z,51.46
2022-08-03T08:25:24.090Z,49.11
2022-08-03T08:28:22.362Z,49.87
2022-08-03T08:30:38.113Z,50.15
2022-08-03T08:33:04.784Z,50.08
2022-08-03T08:35:31.662Z,50.17
2022-08-03T08:38:00.367Z,49.86
2022-08-03T08:40:32.337Z,49.04
2022-08-03T08:42:59.297Z,49.63
2022-08-03T08:45:26.090Z,48.91
2022-08-03T08:48:00.189Z,47.91
2022-08-03T08:50:28.781Z,47.92
2022-08-03T08:52:56.431Z,47.63
2022-08-03T08:55:23.794Z,48.24
2022-08-03T08:57:52.665Z,46.79
2022-08-03T09:00:19.259Z,48.33
2022-08-03T09:02:46.922Z,46.99
2022-08-03T09:05:14.496Z,47.31
2022-08-03T09:07:44.437Z,47.64
2022-08-03T09:10:13.751Z,44.13
2022-08-03T09:12:45.723Z,44.56
2022-08-03T09:15:25.933Z,46.34
2022-08-03T09:17:53.883Z,47.49
2022-08-03T09:20:21.101Z,46.17
2022-08-03T09:23:24.990Z,45.58
2022-08-03T09:25:59.886Z,45.03
2022-08-03T09:28:58.051Z,44.96
2022-08-03T09:31:20.274Z,45.01
2022-08-03T09:33:47.705Z,44.41
2022-08-03T09:36:34.536Z,45.36
2022-08-03T09:39:03.298Z,45.27
2022-08-03T09:41:33.535Z,46.37
2022-08-03T09:44:00.118Z,43.55
2022-08-03T09:46:28.616Z,44.07
2022-08-03T09:49:11.941Z,44.72
2022-08-03T09:52:31.335Z,44.05
2022-08-03T09:54:27.434Z,43.99
2022-08-03T09:56:54.174Z,44.95
2022-08-03T09:59:28.384Z,43.64
2022-08-03T10:01:55.995Z,43.62
2022-08-03T10:04:23.155Z,43.55
2022-08-03T10:07:09.354Z,42.83
2022-08-03T10:09:37.074Z,43.16
2022-08-03T10:12:17.170Z,42.57
2022-08-03T10:14:45.837Z,43.52
2022-08-03T10:17:12.534Z,43.27
2022-08-03T10:19:39.361Z,42.85
2022-08-03T10:22:15.166Z,42.64
2022-08-03T10:24:58.874Z,40.92
2022-08-03T10:27:27.704Z,41.97
2022-08-03T10:29:58.120Z,43.48
2022-08-03T10:32:24.882Z,45.03
2022-08-03T10:34:52.316Z,44.32
2022-08-03T10:37:29.622Z,44.04
2022-08-03T10:39:58.437Z,43.59
2022-08-03T10:42:27.229Z,41.95
2022-08-03T10:44:58.791Z,44.05
2022-08-03T10:47:25.396Z,41.32
2022-08-03T10:49:53.105Z,41.42
2022-08-03T10:52:31.899Z,39.90
2022-08-03T10:55:20.650Z,39.58
2022-08-03T10:57:50.171Z,39.67
2022-08-03T11:00:20.575Z,40.00
2022-08-03T11:03:06.503Z,39.42
2022-08-03T11:05:35.056Z,37.13
2022-08-03T11:08:21.486Z,38.40
2022-08-03T11:10:49.243Z,38.78
2022-08-03T11:13:17.163Z,36.81
2022-08-03T11:15:46.596Z,37.73
2022-08-03T11:18:13.982Z,37.41
2022-08-03T11:20:48.015Z,36.10
2022-08-03T11:23:15.830Z,36.94
2022-08-03T11:26:01.077Z,35.98
2022-08-03T11:28:29.104Z,36.88
2022-08-03T11:30:57.876Z,37.23
2022-08-03T11:33:31.553Z,35.04
2022-08-03T11:35:59.259Z,35.27
2022-08-03T11:38:25.886Z,34.49
2022-08-03T11:40:53.382Z,37.75
2022-08-03T11:43:30.439Z,37.03
2022-08-03T11:46:04.813Z,37.24
2022-08-03T11:48:35.527Z,37.42
2022-08-03T11:51:02.534Z,35.71
2022-08-03T11:53:29.325Z,37.05
2022-08-03T11:55:58.520Z,36.52
2022-08-03T11:59:10.993Z,36.13
2022-08-03T12:01:12.626Z,36.03
2022-08-03T12:03:39.255Z,36.30
2022-08-03T12:06:09.971Z,35.37
2022-08-03T12:08:36.522Z,37.11
2022-08-03T12:11:06.687Z,36.90
2022-08-03T12:14:37.372Z,35.56
2022-08-03T12:16:30.711Z,34.79
2022-08-03T12:19:01.390Z,34.86
2022-08-03T12:21:28.705Z,34.12
2022-08-03T12:24:02.316Z,35.67
2022-08-03T12:26:29.846Z,35.12
2022-08-03T12:28:56.436Z,35.25
2022-08-03T12:31:23.036Z,33.73
2022-08-03T12:33:58.930Z,33.28
2022-08-03T12:36:26.110Z,35.31
2022-08-03T12:38:57.053Z,33.30
2022-08-03T12:41:29.913Z,33.85
2022-08-03T12:43:57.808Z,35.28
2022-08-03T12:46:30.092Z,34.94
2022-08-03T12:49:11.381Z,34.66
2022-08-03T12:51:56.122Z,33.11
2022-08-03T12:54:25.090Z,32.34
2022-08-03T12:57:05.525Z,33.11
2022-08-03T12:59:52.628Z,32.70
2022-08-03T13:02:20.862Z,32.32
2022-08-03T13:04:51.233Z,33.00
2022-08-03T13:07:18.429Z,32.90
2022-08-03T13:09:55.987Z,33.14
2022-08-03T13:12:23.955Z,32.45
2022-08-03T13:14:52.250Z,31.93
2022-08-03T13:17:19.361Z,31.49
2022-08-03T13:19:47.393Z,32.31
2022-08-03T13:22:15.784Z,31.96
2022-08-03T13:24:42.863Z,31.06
2022-08-03T13:28:01.630Z,31.11
2022-08-03T13:29:56.540Z,30.26
2022-08-03T13:32:23.645Z,29.47
2022-08-03T13:34:50.246Z,30.12
2022-08-03T13:37:16.830Z,29.00
2022-08-03T13:39:57.646Z,29.24
2022-08-03T13:42:26.995Z,28.52
2022-08-03T13:44:53.503Z,28.71
2022-08-03T13:47:21.004Z,27.37
2022-08-03T13:49:59.466Z,29.67
2022-08-03T13:52:28.978Z,28.74
2022-08-03T13:54:55.654Z,28.92
2022-08-03T13:58:04.252Z,28.41
2022-08-03T14:00:09.485Z,26.66
2022-08-03T14:02:36.264Z,28.47
2022-08-03T14:05:02.902Z,28.31
2022-08-03T14:07:29.470Z,27.67
2022-08-03T14:09:58.217Z,25.87
2022-08-03T14:12:24.853Z,26.13
2022-08-03T14:14:55.996Z,26.68
2022-08-03T14:17:25.303Z,27.09
2022-08-03T14:19:54.026Z,25.74
2022-08-03T14:22:22.008Z,26.93
2022-08-03T14:24:49.170Z,26.82
2022-08-03T14:27:16.215Z,25.69
2022-08-03T14:29:42.950Z,26.33
2022-08-03T14:32:13.193Z,25.32
2022-08-03T14:34:40.520Z,23.90
2022-08-03T14:37:07.378Z,23.24
2022-08-03T14:42:20.874Z,25.26
2022-08-03T14:44:47.640Z,24.42
2022-08-03T14:47:14.521Z,25.02
2022-08-03T14:50:38.728Z,26.50
2022-08-03T14:52:28.008Z,26.27
2022-08-03T14:54:54.593Z,24.78
2022-08-03T14:57:21.489Z,25.59
2022-08-03T14:59:55.887Z,25.00
2022-08-03T15:02:24.721Z,25.35
2022-08-03T15:04:51.828Z,24.05
2022-08-03T15:07:18.832Z,24.55
2022-08-03T15:09:46.147Z,24.28
2022-08-03T15:12:12.696Z,23.75
2022-08-03T15:14:39.343Z,24.32
2022-08-03T15:17:07.626Z,24.07
2022-08-03T15:20:03.681Z,24.14
2022-08-03T15:22:24.925Z,23.75
2022-08-03T15:24:52.526Z,23.35
2022-08-03T15:27:19.362Z,23.99
2022-08-03T15:30:08.114Z,23.04
2022-08-03T15:32:35.808Z,23.95
2022-08-03T15:35:02.748Z,23.70
2022-08-03T15:37:30.699Z,23.47
2022-08-03T15:39:59.713Z,22.74
2022-08-03T15:42:30.853Z,23.56
2022-08-03T15:44:57.703Z,23.21
2022-08-03T15:47:24.546Z,21.59
2022-08-03T15:49:53.684Z,22.50
2022-08-03T15:52:20.238Z,21.93
2022-08-03T15:54:46.826Z,22.77
2022-08-03T15:57:13.398Z,22.25
2022-08-03T15:59:39.957Z,23.90
2022-08-03T16:02:06.523Z,23.10
2022-08-03T16:04:33.261Z,24.69
2022-08-03T16:06:59.770Z,24.16
2022-08-03T16:09:43.180Z,24.64
2022-08-03T16:12:16.444Z,25.34
2022-08-03T16:14:53.356Z,24.29
2022-08-03T16:17:21.774Z,23.84
2022-08-03T16:19:48.735Z,24.60
2022-08-03T16:22:17.487Z,25.32
2022-08-03T16:24:46.780Z,25.08
2022-08-03T16:27:36.833Z,25.44
2022-08-03T16:30:00.135Z,27.25
2022-08-03T16:32:26.817Z,26.80
2022-08-03T16:34:53.399Z,27.30
2022-08-03T16:37:38.288Z,28.42
2022-08-03T16:40:08.945Z,27.59
2022-08-03T16:42:44.336Z,27.98
2022-08-03T16:45:11.044Z,27.43
2022-08-03T16:47:37.824Z,27.19
2022-08-03T16:50:12.968Z,27.90
2022-08-03T16:52:51.850Z,28.14
2022-08-03T16:55:52.190Z,28.23
2022-08-03T16:58:07.734Z,28.86
2022-08-03T17:00:41.270Z,29.31
2022-08-03T17:03:12.592Z,30.06
2022-08-03T17:05:48.226Z,31.11
2022-08-03T17:08:16.577Z,32.02
2022-08-03T17:10:53.108Z,32.82
2022-08-03T17:13:21.738Z,33.54
2022-08-03T17:15:57.741Z,34.37
2022-08-03T17:18:26.770Z,34.67
2022-08-03T17:20:55.048Z,34.95
2022-08-03T17:23:36.348Z,35.25
2022-08-03T17:26:08.958Z,35.98
2022-08-03T17:28:49.982Z,36.16
2022-08-03T17:31:23.209Z,36.73
2022-08-03T17:33:57.868Z,37.20
2022-08-03T17:36:41.825Z,37.27
2022-08-03T17:39:16.631Z,38.58
2022-08-03T17:41:50.221Z,38.59
2022-08-03T17:44:29.525Z,38.80
2022-08-03T17:47:07.289Z,39.37
2022-08-03T17:49:40.110Z,40.19
2022-08-03T17:52:41.564Z,41.29
2022-08-03T17:55:57.427Z,41.29
2022-08-03T17:58:34.085Z,41.59
2022-08-03T18:02:02.529Z,41.53
2022-08-03T18:04:11.996Z,41.04
2022-08-03T18:06:56.152Z,41.18
2022-08-03T18:10:04.202Z,41.34
2022-08-03T18:12:29.134Z,41.74
2022-08-03T18:15:08.425Z,42.26
2022-08-03T18:17:55.720Z,42.69
2022-08-03T18:20:31.330Z,42.61
2022-08-03T18:23:04.682Z,42.56
2022-08-03T18:25:43.138Z,42.83
2022-08-03T18:28:15.947Z,42.79
2022-08-03T18:30:53.716Z,43.07
2022-08-03T18:34:32.619Z,43.40
2022-08-03T18:36:21.748Z,43.59
2022-08-03T18:38:58.396Z,44.00
2022-08-03T18:41:32.754Z,44.18
2022-08-03T18:44:06.791Z,44.35
2022-08-03T18:46:50.468Z,44.92
2022-08-03T18:49:35.338Z,44.70
2022-08-03T18:52:20.809Z,44.70
2022-08-03T18:55:11.111Z,45.08
2022-08-03T18:57:50.426Z,45.30
2022-08-03T19:00:24.384Z,45.29
2022-08-03T19:03:05.245Z,45.78
2022-08-03T19:05:57.774Z,45.77
2022-08-03T19:08:36.971Z,45.67
2022-08-03T19:11:06.106Z,45.86
2022-08-03T19:13:50.205Z,46.29
2022-08-03T19:16:27.795Z,46.68
2022-08-03T19:18:59.140Z,46.65
2022-08-03T19:21:33.656Z,46.66
2022-08-03T19:24:06.737Z,46.82
2022-08-03T19:26:38.659Z,46.99
2022-08-03T19:29:14.749Z,47.29
2022-08-03T19:31:58.712Z,47.44
2022-08-03T19:34:28.771Z,47.67
2022-08-03T19:36:58.670Z,47.84
2022-08-03T19:39:25.825Z,48.15
2022-08-03T19:41:58.351Z,48.41
2022-08-03T19:44:38.488Z,49.14
2022-08-03T19:47:07.673Z,49.13
2022-08-03T19:50:05.303Z,49.01
2022-08-03T19:52:31.224Z,48.89
2022-08-03T19:55:02.545Z,48.91
2022-08-03T19:57:32.793Z,49.25
2022-08-03T20:00:15.891Z,49.21
2022-08-03T20:02:42.954Z,49.38
2022-08-03T20:05:15.138Z,49.69
2022-08-03T20:07:47.671Z,50.11
2022-08-03T20:10:16.655Z,49.98
2022-08-03T20:12:46.081Z,50.30
2022-08-03T20:15:13.917Z,50.44
2022-08-03T20:17:55.964Z,51.14
2022-08-03T20:20:33.362Z,52.61
2022-08-03T20:23:06.918Z,53.91
2022-08-03T20:25:38.440Z,54.24
2022-08-03T20:28:13.881Z,54.03
2022-08-03T20:30:46.450Z,54.80
2022-08-03T20:33:18.952Z,56.23
2022-08-03T20:36:01.746Z,57.63
2022-08-03T20:38:28.464Z,57.83
2022-08-03T20:40:56.647Z,58.64
2022-08-03T20:43:25.856Z,58.70
2022-08-03T20:45:59.125Z,58.90
2022-08-03T20:48:42.035Z,59.31
2022-08-03T20:51:20.016Z,58.95
2022-08-03T20:54:07.834Z,59.02
2022-08-03T20:56:49.826Z,59.47
2022-08-03T20:59:16.768Z,59.46
2022-08-03T21:01:49.434Z,59.31
2022-08-03T21:04:16.328Z,59.45
2022-08-03T21:06:53.308Z,59.11
2022-08-03T21:09:23.838Z,59.11
2022-08-03T21:12:01.410Z,59.88
2022-08-03T21:14:37.776Z,60.28
2022-08-03T21:17:14.123Z,60.45
2022-08-03T21:19:51.676Z,60.67
2022-08-03T21:22:22.528Z,60.59
2022-08-03T21:24:55.961Z,60.67
2022-08-03T21:27:24.407Z,61.46
2022-08-03T21:29:53.195Z,61.66
2022-08-03T21:32:32.582Z,62.13
2022-08-03T21:35:00.751Z,62.31
2022-08-03T21:37:28.514Z,62.64
2022-08-03T21:39:56.203Z,63.02
2022-08-03T21:42:26.183Z,63.00
2022-08-03T21:44:53.647Z,62.99
2022-08-03T21:47:24.441Z,63.38
2022-08-03T21:50:08.250Z,62.68
2022-08-03T21:52:46.547Z,62.32
2022-08-03T21:55:20.944Z,61.89
2022-08-03T21:57:53.192Z,61.72
2022-08-03T22:00:22.023Z,61.31
2022-08-03T22:02:57.172Z,61.91
2022-08-03T22:05:28.897Z,63.50
2022-08-03T22:08:09.496Z,64.02
2022-08-03T22:10:37.862Z,64.15
2022-08-03T22:13:04.465Z,64.33
2022-08-03T22:15:31.710Z,64.71
2022-08-03T22:18:03.566Z,64.99
2022-08-03T22:20:30.513Z,65.19
2022-08-03T22:23:01.769Z,65.66
2022-08-03T22:25:39.328Z,65.95
2022-08-03T22:28:11.355Z,66.04
2022-08-03T22:30:39.317Z,66.25
2022-08-03T22:33:11.227Z,66.05
2022-08-03T22:35:49.072Z,66.21
2022-08-03T22:38:17.456Z,66.60
2022-08-03T22:40:44.867Z,66.16
2022-08-03T22:43:11.590Z,66.63
2022-08-03T22:46:06.981Z,66.76
2022-08-03T22:48:26.968Z,66.79
2022-08-03T22:50:55.987Z,66.66
2022-08-03T22:53:22.737Z,67.11
2022-08-03T22:55:50.624Z,67.56
2022-08-03T22:58:20.851Z,67.70
2022-08-03T23:01:00.171Z,68.22
2022-08-03T23:04:00.253Z,67.78
2022-08-03T23:06:21.920Z,67.82
2022-08-03T23:08:50.428Z,68.03
2022-08-03T23:11:18.811Z,67.82
2022-08-03T23:13:50.383Z,67.94
2022-08-03T23:16:28.719Z,67.68
2022-08-03T23:18:56.425Z,65.44
2022-08-03T23:21:53.890Z,66.08
2022-08-03T23:24:25.967Z,67.07
2022-08-03T23:26:57.174Z,68.10
2022-08-03T23:29:24.697Z,67.87
2022-08-03T23:31:52.872Z,67.69
2022-08-03T23:34:38.206Z,68.13
2022-08-03T23:37:05.763Z,68.08
2022-08-03T23:39:35.161Z,68.36
2022-08-03T23:42:03.154Z,68.48
2022-08-03T23:44:37.378Z,68.59
2022-08-03T23:47:04.199Z,68.53
2022-08-03T23:49:31.246Z,68.67
2022-08-03T23:52:08.648Z,68.63
2022-08-03T23:54:59.266Z,69.03
2022-08-03T23:57:28.872Z,68.54
2022-08-03T23:59:58.286Z,68.67
